createdAt,value
2017-06-08T00:01:48.233Z,0
2017-06-08T00:12:02.970Z,0
2017-06-08T00:22:18.537Z,0
2017-06-08T00:32:32.731Z,0
2017-06-08T00:42:47.640Z,0
2017-06-08T00:53:01.524Z,0
2017-06-08T01:03:16.099Z,0
2017-06-08T01:13:31.412Z,0
2017-06-08T01:23:45.607Z,0
2017-06-08T01:33:59.818Z,0
2017-06-08T01:44:13.837Z,0
2017-06-08T01:54:28.746Z,0
2017-06-08T02:04:43.284Z,0
2017-06-08T02:14:58.164Z,0
2017-06-08T02:25:12.976Z,0
2017-06-08T02:35:28.285Z,0
2017-06-08T02:45:42.651Z,0
2017-06-08T02:55:57.499Z,0
2017-06-08T03:06:12.660Z,0
2017-06-08T03:16:27.763Z,5
2017-06-08T03:26:42.463Z,15
2017-06-08T03:36:57.007Z,25
2017-06-08T03:47:11.463Z,40
2017-06-08T03:57:26.090Z,35
2017-06-08T04:07:40.702Z,50
2017-06-08T04:17:56.038Z,60
2017-06-08T04:28:11.526Z,55
2017-06-08T04:38:25.794Z,40
2017-06-08T04:48:40.316Z,35
2017-06-08T04:58:54.094Z,45
2017-06-08T05:09:07.842Z,65
2017-06-08T05:19:21.741Z,105
2017-06-08T05:29:36.997Z,155
2017-06-08T05:39:52.436Z,280
2017-06-08T05:50:07.047Z,295
2017-06-08T06:00:21.671Z,340
2017-06-08T06:10:37.418Z,535
2017-06-08T06:20:51.480Z,670
2017-06-08T06:31:06.519Z,545
2017-06-08T06:41:21.104Z,460
2017-06-08T06:51:34.828Z,390
2017-06-08T07:01:50.169Z,430
2017-06-08T07:12:04.423Z,575
2017-06-08T07:22:18.530Z,595
2017-06-08T07:32:32.494Z,610
2017-06-08T07:42:47.761Z,630
2017-06-08T07:53:01.613Z,495
2017-06-08T08:03:16.744Z,665
2017-06-08T08:13:31.026Z,610
2017-06-08T08:23:45.966Z,930
2017-06-08T08:34:01.067Z,1485
2017-06-08T08:44:15.978Z,1360
2017-06-08T08:54:31.290Z,1810
2017-06-08T09:04:45.979Z,1580
2017-06-08T09:15:00.305Z,1225
2017-06-08T09:25:14.553Z,1320
2017-06-08T09:35:29.569Z,1305
2017-06-08T09:45:44.918Z,1300
2017-06-08T09:55:59.713Z,1470
2017-06-08T10:06:15.245Z,1945
2017-06-08T10:16:29.856Z,1425
2017-06-08T10:26:45.160Z,1405
2017-06-08T10:37:00.733Z,1620
2017-06-08T10:47:15.099Z,1745
2017-06-08T10:57:30.220Z,935
2017-06-08T11:07:44.552Z,1465
2017-06-08T11:18:00.296Z,890
2017-06-08T11:28:16.166Z,1005
2017-06-08T11:38:31.275Z,900
2017-06-08T11:48:45.471Z,700
2017-06-08T11:59:00.602Z,1090
2017-06-08T12:09:15.537Z,1045
2017-06-08T12:19:29.469Z,1530
2017-06-08T12:29:44.810Z,1125
2017-06-08T12:40:00.439Z,1555
2017-06-08T12:50:15.070Z,2295
2017-06-08T13:00:30.515Z,2165
2017-06-08T13:10:45.600Z,1520
2017-06-08T13:21:00.777Z,1275
2017-06-08T13:31:16.264Z,1040
2017-06-08T13:41:31.661Z,1580
2017-06-08T13:51:46.391Z,1040
2017-06-08T14:02:02.120Z,1115
2017-06-08T14:12:17.847Z,1160
2017-06-08T14:22:31.901Z,1975
2017-06-08T14:32:46.503Z,1275
2017-06-08T14:43:01.648Z,1145
2017-06-08T14:53:15.849Z,1165
2017-06-08T15:03:30.919Z,1385
2017-06-08T15:13:45.684Z,975
2017-06-08T15:24:00.971Z,1075
2017-06-08T15:34:16.738Z,1160
2017-06-08T15:44:30.752Z,615
2017-06-08T15:54:45.789Z,1095
2017-06-08T16:05:00.745Z,785
2017-06-08T16:15:15.997Z,710
2017-06-08T16:25:30.050Z,600
2017-06-08T16:35:45.624Z,470
2017-06-08T16:46:00.022Z,485
2017-06-08T16:56:15.095Z,660
2017-06-08T17:06:30.642Z,620
2017-06-08T17:16:45.719Z,520
2017-06-08T17:27:01.053Z,415
2017-06-08T17:37:16.243Z,415
2017-06-08T17:47:30.888Z,410
2017-06-08T17:57:45.778Z,335
2017-06-08T18:08:00.843Z,205
2017-06-08T18:18:15.668Z,165
2017-06-08T18:28:29.949Z,145
2017-06-08T18:38:45.410Z,105
2017-06-08T18:49:00.958Z,75
2017-06-08T18:59:15.015Z,65
2017-06-08T19:09:30.036Z,60
2017-06-08T19:19:44.205Z,50
2017-06-08T19:29:58.638Z,30
2017-06-08T19:40:14.134Z,15
2017-06-08T19:50:29.887Z,5
2017-06-08T20:00:45.650Z,0
2017-06-08T20:11:01.432Z,0
2017-06-08T20:21:16.181Z,0
2017-06-08T20:31:30.153Z,0
2017-06-08T20:41:44.363Z,0
2017-06-08T20:52:00.121Z,0
2017-06-08T21:02:15.500Z,0
2017-06-08T21:12:29.998Z,0
2017-06-08T21:22:44.098Z,0
2017-06-08T21:32:58.897Z,0
2017-06-08T21:43:13.794Z,0
2017-06-08T21:53:27.787Z,0
2017-06-08T22:03:42.389Z,0
2017-06-08T22:13:57.348Z,0
2017-06-08T22:24:13.026Z,0
2017-06-08T22:34:27.730Z,0
2017-06-08T22:44:43.173Z,0
2017-06-08T22:54:58.445Z,0
2017-06-08T23:05:12.680Z,0
2017-06-08T23:15:28.382Z,0
2017-06-08T23:25:42.965Z,0
2017-06-08T23:35:57.457Z,0
2017-06-08T23:46:13.069Z,0
2017-06-08T23:56:27.738Z,0
